Time;durP1;ratioP1;P1;durP2;ratioP2;P2;SDS_P1;SDS_P2;PMS_P1;PMS_P2;Temp;Humidity;BMP_temperature;BMP_pressure;BME280_temperature;BME280_humidity;BME280_pressure;Samples;Min_cycle;Max_cycle;Signal;HPM_P1;HPM_P2
2023/02/07 00:01:37;;;;;;;6.07;3.20;;;;;;;;;;5071489;28;20061;-76
2023/02/07 00:04:02;;;;;;;9.33;3.83;;;;;;;;;;5071573;28;20051;-76
2023/02/07 00:06:29;;;;;;;7.20;3.53;;;;;;;;;;5071804;28;20355;-76
2023/02/07 00:08:54;;;;;;;9.10;3.57;;;;;;;;;;5071482;28;20029;-76
2023/02/07 00:11:21;;;;;;;9.97;3.63;;;;;;;;;;5069141;28;20154;-76
2023/02/07 00:13:48;;;;;;;10.73;4.30;;;;;;;;;;5071301;28;20058;-76
2023/02/07 00:16:13;;;;;;;8.10;3.70;;;;;;;;;;5071512;28;20052;-76
2023/02/07 00:18:39;;;;;;;13.27;4.00;;;;;;;;;;5071078;28;20360;-76
2023/02/07 00:21:06;;;;;;;8.73;4.00;;;;;;;;;;5069699;28;20472;-76
2023/02/07 00:23:31;;;;;;;9.10;3.67;;;;;;;;;;5070626;28;20062;-77
2023/02/07 00:25:57;;;;;;;11.60;3.47;;;;;;;;;;5070117;28;20029;-76
2023/02/07 00:28:22;;;;;;;9.67;3.60;;;;;;;;;;5071394;28;20017;-76
2023/02/07 00:30:47;;;;;;;6.60;3.17;;;;;;;;;;5070943;28;20028;-76
2023/02/07 00:33:13;;;;;;;7.73;3.77;;;;;;;;;;5070606;28;20350;-76
2023/02/07 00:35:38;;;;;;;11.63;3.57;;;;;;;;;;5074501;28;20120;-76
2023/02/07 00:38:03;;;;;;;11.37;4.63;;;;;;;;;;5077636;28;20498;-76
2023/02/07 00:40:28;;;;;;;8.07;3.40;;;;;;;;;;5077431;28;20016;-77
2023/02/07 00:42:54;;;;;;;6.03;2.90;;;;;;;;;;5075867;28;20494;-76
2023/02/07 00:45:19;;;;;;;9.73;3.80;;;;;;;;;;5068432;28;20017;-76
2023/02/07 00:47:44;;;;;;;8.37;3.03;;;;;;;;;;5076917;28;20711;-76
2023/02/07 00:50:09;;;;;;;8.50;3.80;;;;;;;;;;5077739;28;20016;-76
2023/02/07 00:52:34;;;;;;;15.10;4.47;;;;;;;;;;5077709;28;20012;-76
2023/02/07 00:54:59;;;;;;;10.33;4.33;;;;;;;;;;5076642;28;20024;-76
2023/02/07 00:57:25;;;;;;;11.90;4.57;;;;;;;;;;5077085;28;20043;-76
2023/02/07 00:59:50;;;;;;;10.83;4.57;;;;;;;;;;5076522;28;20016;-76
2023/02/07 01:02:15;;;;;;;6.53;3.47;;;;;;;;;;5076427;28;20025;-76
2023/02/07 01:04:40;;;;;;;9.67;3.77;;;;;;;;;;5077442;28;20029;-76
2023/02/07 01:07:05;;;;;;;9.47;4.00;;;;;;;;;;5076409;28;20747;-77
2023/02/07 01:09:31;;;;;;;14.00;4.17;;;;;;;;;;5076969;28;20016;-76
2023/02/07 01:11:56;;;;;;;8.43;3.47;;;;;;;;;;5077693;28;20456;-76
2023/02/07 01:14:21;;;;;;;14.00;4.60;;;;;;;;;;5077417;28;20021;-76
2023/02/07 01:16:47;;;;;;;11.57;3.83;;;;;;;;;;5076878;28;20190;-76
2023/02/07 01:19:12;;;;;;;10.60;4.60;;;;;;;;;;5075943;28;20032;-76
2023/02/07 01:21:37;;;;;;;17.87;4.77;;;;;;;;;;5076183;28;20020;-76
2023/02/07 01:24:03;;;;;;;14.33;4.60;;;;;;;;;;5076377;28;20039;-76
2023/02/07 01:26:28;;;;;;;9.40;3.97;;;;;;;;;;5076793;28;20181;-76
2023/02/07 01:28:54;;;;;;;13.77;5.30;;;;;;;;;;5076936;28;20021;-76
2023/02/07 01:31:20;;;;;;;12.87;4.60;;;;;;;;;;5077436;28;20020;-76
2023/02/07 01:33:46;;;;;;;8.13;3.53;;;;;;;;;;5077543;28;20096;-76
2023/02/07 01:36:12;;;;;;;8.20;3.97;;;;;;;;;;5076562;28;20091;-77
2023/02/07 01:38:38;;;;;;;6.60;3.23;;;;;;;;;;5088235;28;20021;-76
2023/02/07 01:41:04;;;;;;;9.23;4.40;;;;;;;;;;5090242;28;20115;-76
2023/02/07 01:43:29;;;;;;;10.87;4.40;;;;;;;;;;5097281;28;20480;-76
2023/02/07 01:45:54;;;;;;;19.03;6.10;;;;;;;;;;5094738;28;20447;-76
2023/02/07 01:48:22;;;;;;;12.70;4.57;;;;;;;;;;5088759;28;20447;-76
2023/02/07 01:50:48;;;;;;;12.90;5.30;;;;;;;;;;5085094;28;20479;-76
2023/02/07 01:53:15;;;;;;;10.63;4.60;;;;;;;;;;5092801;28;20012;-77
2023/02/07 01:55:41;;;;;;;10.17;3.77;;;;;;;;;;5084388;28;20059;-76
2023/02/07 01:58:07;;;;;;;12.27;3.77;;;;;;;;;;5090313;28;20455;-76
2023/02/07 02:00:32;;;;;;;11.17;4.73;;;;;;;;;;5087345;28;20181;-76
2023/02/07 02:02:57;;;;;;;13.23;4.37;;;;;;;;;;5086699;28;20551;-76
2023/02/07 02:05:23;;;;;;;10.83;4.43;;;;;;;;;;5094074;28;20024;-76
2023/02/07 02:07:48;;;;;;;9.87;4.27;;;;;;;;;;5094079;28;20024;-76
2023/02/07 02:10:15;;;;;;;11.73;4.33;;;;;;;;;;5092355;28;20020;-76
2023/02/07 02:12:50;;;;;;;8.97;3.93;;;;;;;;;;5083543;28;20387;-77
2023/02/07 02:15:37;;;;;;;7.90;4.07;;;;;;;;;;5080897;28;20751;-76
2023/02/07 02:18:38;;;;;;;11.73;4.53;;;;;;;;;;5086769;28;20025;-76
2023/02/07 02:21:22;;;;;;;12.97;4.90;;;;;;;;;;5051557;28;20059;-76
2023/02/07 02:23:53;;;;;;;12.47;4.87;;;;;;;;;;5090270;28;20035;-76
2023/02/07 02:26:33;;;;;;;16.50;5.00;;;;;;;;;;5082170;28;20530;-76
2023/02/07 02:29:01;;;;;;;11.80;5.00;;;;;;;;;;5093522;28;20081;-76
2023/02/07 02:31:39;;;;;;;9.43;3.97;;;;;;;;;;5092064;28;20020;-76
2023/02/07 02:34:15;;;;;;;13.90;4.47;;;;;;;;;;5093459;28;20486;-76
2023/02/07 02:36:40;;;;;;;12.00;4.30;;;;;;;;;;5087607;28;20020;-76
2023/02/07 02:39:06;;;;;;;14.30;5.23;;;;;;;;;;5090619;28;20019;-77
2023/02/07 02:41:37;;;;;;;11.23;4.03;;;;;;;;;;5092037;28;20051;-76
2023/02/07 02:44:04;;;;;;;11.45;4.43;;;;;;;;;;5092754;28;20054;-76
2023/02/07 02:46:33;;;;;;;13.03;5.43;;;;;;;;;;5079734;28;20393;-76
2023/02/07 02:48:59;;;;;;;9.47;4.57;;;;;;;;;;5082469;28;20143;-77
2023/02/07 02:51:27;;;;;;;14.00;4.77;;;;;;;;;;5092649;28;20110;-76
2023/02/07 02:53:53;;;;;;;7.43;3.67;;;;;;;;;;5093407;28;20467;-76
2023/02/07 02:56:25;;;;;;;10.77;4.57;;;;;;;;;;5091309;28;20019;-76
2023/02/07 02:59:09;;;;;;;14.68;3.92;;;;;;;;;;5091577;28;20313;-76
2023/02/07 03:01:37;;;;;;;14.70;4.77;;;;;;;;;;5086312;28;20024;-76
2023/02/07 03:04:05;;;;;;;11.07;4.10;;;;;;;;;;5092794;28;20024;-77
2023/02/07 03:06:45;;;;;;;8.27;3.70;;;;;;;;;;5092997;28;20016;-76
2023/02/07 03:09:10;;;;;;;14.77;4.60;;;;;;;;;;5092980;28;20016;-76
2023/02/07 03:11:40;;;;;;;10.93;4.33;;;;;;;;;;5091430;28;20022;-76
2023/02/07 03:14:11;;;;;;;14.33;4.10;;;;;;;;;;5087454;28;20093;-76
2023/02/07 03:16:36;;;;;;;11.17;4.73;;;;;;;;;;5092232;28;20530;-76
2023/02/07 03:19:10;;;;;;;12.50;3.80;;;;;;;;;;5092141;28;20105;-77
2023/02/07 03:21:38;;;;;;;12.20;4.47;;;;;;;;;;5091379;28;20495;-76
2023/02/07 03:24:07;;;;;;;14.63;4.33;;;;;;;;;;5092611;28;20101;-77
2023/02/07 03:26:33;;;;;;;10.37;4.20;;;;;;;;;;5077671;28;20070;-77
2023/02/07 03:28:59;;;;;;;9.93;4.70;;;;;;;;;;5092384;28;20103;-77
2023/02/07 03:31:26;;;;;;;11.10;4.07;;;;;;;;;;5092420;28;20016;-76
2023/02/07 03:33:53;;;;;;;10.93;4.50;;;;;;;;;;5092125;28;20016;-77
2023/02/07 03:36:22;;;;;;;13.67;4.60;;;;;;;;;;5090974;28;20031;-77
2023/02/07 03:38:47;;;;;;;12.23;4.20;;;;;;;;;;5085317;28;20021;-77
2023/02/07 03:41:15;;;;;;;7.70;3.50;;;;;;;;;;5081447;28;20072;-76
2023/02/07 03:43:41;;;;;;;12.27;4.57;;;;;;;;;;5091922;28;20020;-77
2023/02/07 03:46:08;;;;;;;9.13;4.17;;;;;;;;;;5078235;28;20695;-76
2023/02/07 03:48:33;;;;;;;7.87;4.00;;;;;;;;;;5090854;28;20094;-77
2023/02/07 03:50:58;;;;;;;12.37;4.07;;;;;;;;;;5087628;28;20036;-77
2023/02/07 03:53:24;;;;;;;13.13;4.30;;;;;;;;;;5092207;28;20016;-76
2023/02/07 03:55:49;;;;;;;8.80;4.03;;;;;;;;;;5091862;28;20019;-76
2023/02/07 03:58:14;;;;;;;11.60;3.90;;;;;;;;;;5091561;28;20050;-76
2023/02/07 04:00:39;;;;;;;9.87;4.37;;;;;;;;;;5092029;28;20444;-76
2023/02/07 04:03:05;;;;;;;14.40;4.73;;;;;;;;;;5088064;28;20042;-76
2023/02/07 04:05:30;;;;;;;11.23;4.33;;;;;;;;;;5091638;28;20015;-76
2023/02/07 04:07:55;;;;;;;8.07;3.60;;;;;;;;;;5089533;28;20016;-77
2023/02/07 04:10:20;;;;;;;12.10;4.40;;;;;;;;;;5091144;28;20020;-77
2023/02/07 04:12:46;;;;;;;12.50;4.03;;;;;;;;;;5092190;28;20111;-76
2023/02/07 04:15:11;;;;;;;11.13;3.83;;;;;;;;;;5076719;28;20383;-76
2023/02/07 04:17:36;;;;;;;6.50;2.90;;;;;;;;;;5091229;28;20020;-77
2023/02/07 04:20:02;;;;;;;14.40;4.43;;;;;;;;;;5091074;28;20023;-76
2023/02/07 04:22:28;;;;;;;10.97;4.67;;;;;;;;;;5091628;28;20049;-76
2023/02/07 04:24:53;;;;;;;14.70;4.67;;;;;;;;;;5089646;28;20054;-77
2023/02/07 04:27:18;;;;;;;9.40;4.33;;;;;;;;;;5083638;28;20115;-76
2023/02/07 04:29:44;;;;;;;19.10;4.53;;;;;;;;;;5090967;28;20024;-76
2023/02/07 04:32:09;;;;;;;12.47;4.47;;;;;;;;;;5091006;28;20016;-77
2023/02/07 04:34:34;;;;;;;11.97;4.57;;;;;;;;;;5089570;28;20027;-77
2023/02/07 04:36:59;;;;;;;11.97;4.93;;;;;;;;;;5091483;28;20348;-77
2023/02/07 04:39:25;;;;;;;14.63;4.87;;;;;;;;;;5085741;28;20035;-77
2023/02/07 04:41:50;;;;;;;21.70;5.00;;;;;;;;;;5089908;28;20032;-76
2023/02/07 04:44:15;;;;;;;12.53;4.33;;;;;;;;;;5089591;28;20028;-76
2023/02/07 04:46:40;;;;;;;18.17;4.87;;;;;;;;;;5078556;28;20030;-77
2023/02/07 04:49:05;;;;;;;19.50;5.30;;;;;;;;;;5090975;28;20024;-77
2023/02/07 04:51:31;;;;;;;19.83;5.63;;;;;;;;;;5077545;28;20073;-77
2023/02/07 04:53:56;;;;;;;13.90;5.30;;;;;;;;;;5090759;28;20020;-76
2023/02/07 04:56:22;;;;;;;24.57;6.87;;;;;;;;;;5089640;28;20038;-76
2023/02/07 04:58:47;;;;;;;20.57;5.43;;;;;;;;;;5089734;28;20048;-76
2023/02/07 05:01:12;;;;;;;13.73;5.00;;;;;;;;;;5091132;28;20070;-76
2023/02/07 05:03:38;;;;;;;17.10;5.27;;;;;;;;;;5077960;28;20028;-76
2023/02/07 05:06:03;;;;;;;17.53;5.17;;;;;;;;;;5089427;28;20028;-77
2023/02/07 05:08:28;;;;;;;17.37;5.73;;;;;;;;;;5089775;28;20031;-76
2023/02/07 05:10:54;;;;;;;13.27;4.47;;;;;;;;;;5089057;28;20831;-76
2023/02/07 05:13:20;;;;;;;14.53;4.43;;;;;;;;;;5087023;28;20016;-77
2023/02/07 05:15:45;;;;;;;13.50;5.30;;;;;;;;;;5080748;28;20463;-77
2023/02/07 05:18:10;;;;;;;15.40;6.10;;;;;;;;;;5090588;28;20012;-76
2023/02/07 05:20:35;;;;;;;11.50;4.67;;;;;;;;;;5090640;28;20042;-77
2023/02/07 05:23:01;;;;;;;16.63;5.40;;;;;;;;;;5079908;28;20021;-76
2023/02/07 05:25:26;;;;;;;15.10;5.47;;;;;;;;;;5091166;28;20156;-77
2023/02/07 05:27:51;;;;;;;13.70;5.43;;;;;;;;;;5085894;28;20023;-78
2023/02/07 05:30:16;;;;;;;14.83;5.13;;;;;;;;;;5092744;28;20032;-78
2023/02/07 05:35:26;;;;;;;13.67;5.87;;;;;;;;;;5094740;28;20105;-76
2023/02/07 05:37:51;;;;;;;18.20;6.30;;;;;;;;;;5087967;28;20083;-76
2023/02/07 05:40:16;;;;;;;14.10;5.17;;;;;;;;;;5088766;28;20024;-76
2023/02/07 05:42:41;;;;;;;14.73;4.77;;;;;;;;;;5094600;28;20016;-77
2023/02/07 05:45:07;;;;;;;15.70;5.10;;;;;;;;;;5081361;28;20079;-77
2023/02/07 05:47:32;;;;;;;14.30;6.03;;;;;;;;;;5085483;28;20356;-76
2023/02/07 05:49:57;;;;;;;13.80;5.57;;;;;;;;;;5085187;28;20050;-77
2023/02/07 05:52:23;;;;;;;12.17;4.10;;;;;;;;;;5085791;28;20099;-77
2023/02/07 05:54:48;;;;;;;13.63;4.43;;;;;;;;;;5092471;28;20111;-76
2023/02/07 05:57:13;;;;;;;11.80;4.53;;;;;;;;;;5092853;28;20024;-77
2023/02/07 05:59:39;;;;;;;11.13;3.77;;;;;;;;;;5094010;28;20412;-77
2023/02/07 06:02:04;;;;;;;11.93;4.33;;;;;;;;;;5082756;28;20067;-77
2023/02/07 06:04:29;;;;;;;14.33;5.40;;;;;;;;;;5087844;28;20028;-77
2023/02/07 06:06:54;;;;;;;12.53;4.53;;;;;;;;;;5094258;28;20088;-77
2023/02/07 06:09:20;;;;;;;13.57;5.07;;;;;;;;;;5092679;28;20046;-77
2023/02/07 06:11:45;;;;;;;12.47;4.43;;;;;;;;;;5092066;28;20472;-76
2023/02/07 06:14:11;;;;;;;12.17;4.17;;;;;;;;;;5082394;28;20412;-77
2023/02/07 06:16:36;;;;;;;13.53;4.70;;;;;;;;;;5089002;28;20111;-77
2023/02/07 06:19:01;;;;;;;19.77;4.67;;;;;;;;;;5091746;28;20482;-77
2023/02/07 06:21:26;;;;;;;11.07;4.63;;;;;;;;;;5092206;28;20094;-77
2023/02/07 06:23:53;;;;;;;13.37;5.47;;;;;;;;;;5093317;28;20074;-77
2023/02/07 06:26:18;;;;;;;16.60;5.13;;;;;;;;;;5083534;28;20025;-76
2023/02/07 06:28:43;;;;;;;12.83;4.93;;;;;;;;;;5090797;28;20012;-77
2023/02/07 06:31:09;;;;;;;15.50;5.37;;;;;;;;;;5092333;28;20028;-77
2023/02/07 06:33:34;;;;;;;15.57;4.97;;;;;;;;;;5091312;28;20028;-77
2023/02/07 06:35:59;;;;;;;14.37;5.03;;;;;;;;;;5092965;28;20039;-77
2023/02/07 06:38:24;;;;;;;12.87;5.07;;;;;;;;;;5084830;28;20040;-77
2023/02/07 06:40:49;;;;;;;15.93;5.57;;;;;;;;;;5091880;28;20024;-77
2023/02/07 06:43:15;;;;;;;10.70;4.90;;;;;;;;;;5093256;28;20016;-77
2023/02/07 06:45:40;;;;;;;11.27;4.77;;;;;;;;;;5076372;28;20021;-76
2023/02/07 06:48:06;;;;;;;9.90;4.00;;;;;;;;;;5092066;28;20020;-76
2023/02/07 06:50:31;;;;;;;9.07;4.17;;;;;;;;;;5085205;28;20085;-77
2023/02/07 06:53:02;;;;;;;10.13;4.00;;;;;;;;;;5091273;28;20165;-77
2023/02/07 06:55:28;;;;;;;17.17;5.13;;;;;;;;;;5092401;28;20031;-77
2023/02/07 06:57:54;;;;;;;13.73;5.20;;;;;;;;;;5078119;28;20050;-77
2023/02/07 07:00:20;;;;;;;10.93;4.30;;;;;;;;;;5078924;28;20052;-77
2023/02/07 07:02:46;;;;;;;9.57;4.37;;;;;;;;;;5071175;28;20167;-77
2023/02/07 07:05:11;;;;;;;15.27;5.17;;;;;;;;;;5079106;28;20168;-77
2023/02/07 07:07:36;;;;;;;12.43;5.27;;;;;;;;;;5090259;28;20521;-77
2023/02/07 07:10:01;;;;;;;16.10;5.00;;;;;;;;;;5092718;28;20008;-77
2023/02/07 07:12:26;;;;;;;17.90;5.37;;;;;;;;;;5082981;28;20028;-77
2023/02/07 07:14:52;;;;;;;14.23;5.30;;;;;;;;;;5088725;28;20064;-77
2023/02/07 07:17:17;;;;;;;12.57;4.67;;;;;;;;;;5086651;28;20020;-77
2023/02/07 07:19:42;;;;;;;14.87;5.70;;;;;;;;;;5076722;28;20039;-77
2023/02/07 07:22:07;;;;;;;12.97;4.90;;;;;;;;;;5086712;28;20020;-77
2023/02/07 07:24:32;;;;;;;13.40;5.60;;;;;;;;;;5083884;28;20129;-76
2023/02/07 07:26:58;;;;;;;14.70;6.00;;;;;;;;;;5086717;28;20486;-77
2023/02/07 07:29:23;;;;;;;14.00;4.43;;;;;;;;;;5081286;28;20423;-77
2023/02/07 07:31:51;;;;;;;16.33;5.27;;;;;;;;;;5084186;28;20353;-77
2023/02/07 07:34:16;;;;;;;19.47;6.43;;;;;;;;;;5072619;28;20090;-77
2023/02/07 07:36:41;;;;;;;17.43;6.37;;;;;;;;;;5070636;28;20028;-77
2023/02/07 07:39:07;;;;;;;18.47;6.70;;;;;;;;;;5068465;28;20008;-77
2023/02/07 07:41:33;;;;;;;18.13;5.73;;;;;;;;;;5067506;28;20024;-77
2023/02/07 07:43:58;;;;;;;17.47;6.93;;;;;;;;;;5079323;28;20043;-77
2023/02/07 07:46:23;;;;;;;12.23;5.40;;;;;;;;;;5070319;28;20012;-77
2023/02/07 07:48:48;;;;;;;16.83;5.63;;;;;;;;;;5078029;28;20181;-79
2023/02/07 07:51:14;;;;;;;16.57;5.50;;;;;;;;;;5091697;28;20081;-76
2023/02/07 07:53:39;;;;;;;13.47;5.33;;;;;;;;;;5067031;28;20351;-75
2023/02/07 07:56:04;;;;;;;17.27;5.93;;;;;;;;;;5088155;28;20032;-75
2023/02/07 07:58:30;;;;;;;13.43;6.30;;;;;;;;;;5092534;28;20020;-75
2023/02/07 08:00:55;;;;;;;17.87;5.23;;;;;;;;;;5092219;28;20016;-75
2023/02/07 08:03:20;;;;;;;20.10;5.33;;;;;;;;;;5082288;28;20016;-75
2023/02/07 08:05:46;;;;;;;13.77;4.57;;;;;;;;;;5092300;28;20416;-75
2023/02/07 08:08:11;;;;;;;17.57;6.27;;;;;;;;;;5082533;28;20042;-75
2023/02/07 08:10:37;;;;;;;20.20;6.90;;;;;;;;;;5085127;28;20043;-75
2023/02/07 08:13:02;;;;;;;15.80;5.57;;;;;;;;;;5091968;28;20020;-75
2023/02/07 08:15:27;;;;;;;17.63;5.63;;;;;;;;;;5082640;28;20077;-75
2023/02/07 08:17:53;;;;;;;13.67;5.67;;;;;;;;;;5089488;28;20036;-76
2023/02/07 08:20:18;;;;;;;17.93;5.93;;;;;;;;;;5091510;28;20039;-75
2023/02/07 08:22:43;;;;;;;11.90;4.83;;;;;;;;;;5092053;28;20028;-75
2023/02/07 08:25:08;;;;;;;12.00;5.77;;;;;;;;;;5080736;28;20099;-75
2023/02/07 08:27:34;;;;;;;17.37;5.50;;;;;;;;;;5082346;28;20023;-75
2023/02/07 08:29:59;;;;;;;15.63;4.97;;;;;;;;;;5091887;28;20443;-75
2023/02/07 08:32:24;;;;;;;14.20;5.50;;;;;;;;;;5078104;28;20023;-76
2023/02/07 08:34:50;;;;;;;18.13;6.90;;;;;;;;;;5091635;28;20019;-75
2023/02/07 08:37:15;;;;;;;12.23;5.23;;;;;;;;;;5091609;28;20016;-75
2023/02/07 08:39:40;;;;;;;18.07;6.47;;;;;;;;;;5076675;28;20119;-76
2023/02/07 08:42:07;;;;;;;15.20;5.33;;;;;;;;;;5088652;28;20032;-77
2023/02/07 08:44:32;;;;;;;18.27;6.53;;;;;;;;;;5088561;28;20032;-77
2023/02/07 08:46:57;;;;;;;13.23;5.60;;;;;;;;;;5073425;28;20532;-77
2023/02/07 08:49:23;;;;;;;14.47;5.87;;;;;;;;;;5073651;28;20099;-77
2023/02/07 08:51:48;;;;;;;12.13;5.27;;;;;;;;;;5080713;28;20107;-77
2023/02/07 08:54:13;;;;;;;15.90;5.40;;;;;;;;;;5082756;28;20196;-77
2023/02/07 08:56:38;;;;;;;16.97;6.80;;;;;;;;;;5094220;28;20016;-78
2023/02/07 08:59:04;;;;;;;19.50;6.67;;;;;;;;;;5095586;28;20028;-77
2023/02/07 09:01:30;;;;;;;21.50;6.23;;;;;;;;;;5095751;28;20027;-77
2023/02/07 09:03:56;;;;;;;18.77;6.80;;;;;;;;;;5084310;28;20352;-77
2023/02/07 09:06:24;;;;;;;12.53;5.33;;;;;;;;;;5095599;28;20028;-77
2023/02/07 09:08:49;;;;;;;14.40;6.00;;;;;;;;;;5095513;28;20016;-77
2023/02/07 09:11:15;;;;;;;17.23;6.47;;;;;;;;;;5095351;28;20023;-77
2023/02/07 09:13:44;;;;;;;12.27;5.77;;;;;;;;;;5093044;28;20096;-76
2023/02/07 09:16:09;;;;;;;14.30;5.70;;;;;;;;;;5095305;28;20211;-77
2023/02/07 09:18:34;;;;;;;13.07;5.47;;;;;;;;;;5086332;28;20107;-77
2023/02/07 09:21:00;;;;;;;10.70;3.50;;;;;;;;;;5093867;28;20019;-77
2023/02/07 09:23:26;;;;;;;13.50;5.53;;;;;;;;;;5089841;28;20031;-77
2023/02/07 09:25:52;;;;;;;10.73;4.50;;;;;;;;;;5092694;28;20051;-77
2023/02/07 09:28:19;;;;;;;11.70;4.67;;;;;;;;;;5093767;28;20024;-77
2023/02/07 09:30:45;;;;;;;9.03;3.97;;;;;;;;;;5076431;28;20020;-76
2023/02/07 09:33:10;;;;;;;10.47;4.00;;;;;;;;;;5095025;28;20020;-76
2023/02/07 09:35:40;;;;;;;8.30;3.93;;;;;;;;;;5094972;28;20031;-76
2023/02/07 09:38:06;;;;;;;11.27;4.03;;;;;;;;;;5094824;28;20076;-76
2023/02/07 09:40:33;;;;;;;12.07;4.13;;;;;;;;;;5092071;28;20102;-76
2023/02/07 09:43:01;;;;;;;13.20;4.17;;;;;;;;;;5094873;28;20024;-76
2023/02/07 09:45:28;;;;;;;8.70;3.77;;;;;;;;;;5071375;28;20443;-76
2023/02/07 09:47:59;;;;;;;14.07;4.80;;;;;;;;;;5092101;28;20308;-75
2023/02/07 09:50:26;;;;;;;13.17;4.47;;;;;;;;;;5094772;28;20059;-76
2023/02/07 09:52:54;;;;;;;8.23;3.97;;;;;;;;;;5094747;28;20154;-76
2023/02/07 09:55:19;;;;;;;9.13;4.47;;;;;;;;;;5075634;28;20028;-76
2023/02/07 09:57:46;;;;;;;11.60;4.83;;;;;;;;;;5086429;28;20048;-76
2023/02/07 10:00:23;;;;;;;15.90;4.33;;;;;;;;;;5085193;28;20055;-76
2023/02/07 10:02:55;;;;;;;10.97;4.33;;;;;;;;;;5083585;28;20044;-76
2023/02/07 10:05:20;;;;;;;;;;;;;;;;;;5094260;28;20351;-76
2023/02/07 10:07:46;;;;;;;7.88;3.88;;;;;;;;;;5084590;28;20259;-76
2023/02/07 10:10:15;;;;;;;13.30;4.13;;;;;;;;;;5092172;28;20024;-76
2023/02/07 10:12:55;;;;;;;16.13;4.70;;;;;;;;;;5092533;28;20028;-76
2023/02/07 10:15:39;;;;;;;11.47;5.00;;;;;;;;;;5085212;28;20035;-76
2023/02/07 10:18:28;;;;;;;15.77;5.67;;;;;;;;;;5085895;28;20120;-76
2023/02/07 10:20:58;;;;;;;12.87;4.70;;;;;;;;;;5079736;28;20628;-75
2023/02/07 10:23:30;;;;;;;9.67;4.47;;;;;;;;;;5074928;28;20066;-75
2023/02/07 10:26:14;;;;;;;9.43;4.85;;;;;;;;;;5091996;28;20020;-75
2023/02/07 10:28:48;;;;;;;12.70;4.63;;;;;;;;;;5086797;28;20031;-75
2023/02/07 10:31:17;;;;;;;10.63;4.93;;;;;;;;;;5086196;28;20366;-75
2023/02/07 10:34:03;;;;;;;10.00;4.73;;;;;;;;;;5062494;28;20051;-74
2023/02/07 10:36:32;;;;;;;9.20;4.10;;;;;;;;;;5057184;28;20660;-74
2023/02/07 10:39:08;;;;;;;7.53;3.30;;;;;;;;;;5074065;28;20143;-75
2023/02/07 10:41:37;;;;;;;8.97;3.30;;;;;;;;;;5079664;28;20017;-74
2023/02/07 10:44:04;;;;;;;9.57;3.50;;;;;;;;;;5086669;28;20025;-73
2023/02/07 10:46:29;;;;;;;5.17;2.27;;;;;;;;;;5079874;28;20049;-73
2023/02/07 10:48:55;;;;;;;5.63;2.57;;;;;;;;;;5071164;28;20020;-74
2023/02/07 10:51:40;;;;;;;5.57;2.30;;;;;;;;;;5090961;28;20012;-75
2023/02/07 10:54:07;;;;;;;5.13;2.27;;;;;;;;;;5082909;28;20363;-75
2023/02/07 10:56:33;;;;;;;4.40;2.07;;;;;;;;;;5082995;28;20817;-76
2023/02/07 10:58:58;;;;;;;6.57;2.60;;;;;;;;;;5081604;28;20036;-77
2023/02/07 11:01:25;;;;;;;6.13;2.50;;;;;;;;;;5086946;28;20027;-77
2023/02/07 11:03:51;;;;;;;5.20;2.37;;;;;;;;;;5081940;28;20447;-77
2023/02/07 11:06:24;;;;;;;4.33;2.07;;;;;;;;;;5093262;28;20024;-77
2023/02/07 11:08:49;;;;;;;5.87;2.43;;;;;;;;;;5093250;28;20028;-77
2023/02/07 11:11:42;;;;;;;4.87;2.17;;;;;;;;;;5089455;28;20068;-77
2023/02/07 11:14:14;;;;;;;5.87;2.00;;;;;;;;;;5074098;28;20048;-77
2023/02/07 11:16:41;;;;;;;4.43;2.05;;;;;;;;;;5092928;28;20042;-77
2023/02/07 11:19:07;;;;;;;5.93;2.10;;;;;;;;;;5092704;28;20062;-77
2023/02/07 11:21:32;;;;;;;4.87;2.07;;;;;;;;;;5092849;28;20012;-77
2023/02/07 11:24:03;;;;;;;5.63;2.03;;;;;;;;;;5092920;28;20031;-77
2023/02/07 11:26:29;;;;;;;5.53;2.10;;;;;;;;;;5074892;28;20103;-77
2023/02/07 11:29:20;;;;;;;5.37;2.50;;;;;;;;;;5092418;28;20245;-77
2023/02/07 11:31:47;;;;;;;5.90;1.80;;;;;;;;;;5090684;28;20032;-76
2023/02/07 11:34:27;;;;;;;4.27;1.97;;;;;;;;;;5091466;28;20024;-76
2023/02/07 11:36:52;;;;;;;4.67;2.00;;;;;;;;;;5091692;28;20024;-76
2023/02/07 11:39:19;;;;;;;6.93;2.07;;;;;;;;;;5092440;28;20113;-77
2023/02/07 11:41:58;;;;;;;6.23;2.30;;;;;;;;;;5080979;28;20044;-76
2023/02/07 11:44:24;;;;;;;6.10;2.27;;;;;;;;;;5068082;28;20069;-77
2023/02/07 11:46:49;;;;;;;6.80;2.30;;;;;;;;;;5072004;28;20841;-77
2023/02/07 11:49:21;;;;;;;5.67;2.57;;;;;;;;;;5087839;28;20040;-77
2023/02/07 11:51:49;;;;;;;5.53;2.47;;;;;;;;;;5076657;28;20124;-77
2023/02/07 11:54:15;;;;;;;6.67;2.60;;;;;;;;;;5086943;28;20035;-77
2023/02/07 11:56:47;;;;;;;4.53;2.03;;;;;;;;;;5073849;28;20025;-77
2023/02/07 11:59:14;;;;;;;;;;;;;;;;;;5083066;28;20032;-77
2023/02/07 12:01:40;;;;;;;4.40;1.87;;;;;;;;;;5076137;28;19909;-76
2023/02/07 12:04:09;;;;;;;7.90;2.67;;;;;;;;;;5090442;28;20015;-76
2023/02/07 12:06:57;;;;;;;4.43;2.30;;;;;;;;;;5076195;28;20044;-77
2023/02/07 12:09:35;;;;;;;5.00;2.40;;;;;;;;;;5071166;28;20073;-76
2023/02/07 12:12:02;;;;;;;5.50;2.13;;;;;;;;;;5067893;28;20020;-76
2023/02/07 12:15:00;;;;;;;4.90;2.10;;;;;;;;;;5084741;28;20017;-76
2023/02/07 12:17:34;;;;;;;5.23;2.23;;;;;;;;;;5064705;28;20024;-76
2023/02/07 12:20:10;;;;;;;3.73;1.50;;;;;;;;;;5081392;28;20107;-74
2023/02/07 12:22:40;;;;;;;4.53;2.07;;;;;;;;;;5085960;28;20028;-74
2023/02/07 12:25:09;;;;;;;3.77;1.80;;;;;;;;;;5084292;28;20323;-74
2023/02/07 12:27:37;;;;;;;6.20;2.50;;;;;;;;;;5080212;28;20032;-74
2023/02/07 12:30:02;;;;;;;6.93;2.40;;;;;;;;;;5076109;28;20322;-74
2023/02/07 12:32:36;;;;;;;6.10;2.13;;;;;;;;;;5078509;28;20012;-74
2023/02/07 12:35:10;;;;;;;3.53;1.70;;;;;;;;;;5084931;28;20019;-75
2023/02/07 12:37:40;;;;;;;4.33;1.57;;;;;;;;;;5091407;28;20051;-74
2023/02/07 12:40:11;;;;;;;4.63;2.20;;;;;;;;;;5082015;28;20021;-75
2023/02/07 12:42:45;;;;;;;5.40;2.27;;;;;;;;;;5077527;28;20028;-74
2023/02/07 12:45:15;;;;;;;3.70;1.70;;;;;;;;;;5074609;28;20493;-75
2023/02/07 12:47:52;;;;;;;5.87;2.20;;;;;;;;;;5084876;28;20031;-74
2023/02/07 12:50:18;;;;;;;8.30;2.47;;;;;;;;;;5079850;28;20043;-74
2023/02/07 12:53:07;;;;;;;4.50;1.57;;;;;;;;;;5087733;28;20436;-75
2023/02/07 12:55:51;;;;;;;4.30;1.90;;;;;;;;;;5073793;28;20016;-75
2023/02/07 12:58:16;;;;;;;3.03;1.55;;;;;;;;;;5061882;28;20111;-74
2023/02/07 13:01:10;;;;;;;5.10;2.00;;;;;;;;;;5079634;28;20044;-75
2023/02/07 13:03:36;;;;;;;4.80;1.98;;;;;;;;;;5057701;28;20467;-75
2023/02/07 13:06:04;;;;;;;5.43;1.45;;;;;;;;;;5090775;28;20104;-75
2023/02/07 13:08:39;;;;;;;4.13;1.85;;;;;;;;;;5089652;28;20067;-75
2023/02/07 13:11:17;;;;;;;5.18;2.00;;;;;;;;;;5072842;28;20033;-75
2023/02/07 13:13:51;;;;;;;5.47;1.77;;;;;;;;;;5077008;28;20020;-75
2023/02/07 13:16:26;;;;;;;5.15;2.05;;;;;;;;;;5084374;28;20090;-75
2023/02/07 13:19:10;;;;;;;6.18;2.20;;;;;;;;;;5091291;28;20028;-76
2023/02/07 13:21:39;;;;;;;6.57;2.53;;;;;;;;;;5063073;28;20025;-75
2023/02/07 13:24:05;;;;;;;7.13;1.67;;;;;;;;;;5079418;28;20028;-75
2023/02/07 13:26:32;;;;;;;4.45;1.90;;;;;;;;;;5084297;28;20406;-75
2023/02/07 13:28:59;;;;;;;3.35;1.50;;;;;;;;;;5091148;28;20028;-75
2023/02/07 13:31:39;;;;;;;5.68;2.30;;;;;;;;;;5088435;28;20164;-74
2023/02/07 13:34:07;;;;;;;1.73;1.08;;;;;;;;;;5076908;28;20093;-75
2023/02/07 13:36:44;;;;;;;3.92;1.45;;;;;;;;;;5076492;28;20437;-75
2023/02/07 13:39:26;;;;;;;3.83;1.92;;;;;;;;;;5068521;28;20020;-75
2023/02/07 13:42:10;;;;;;;3.88;1.60;;;;;;;;;;5084709;28;20024;-75
2023/02/07 13:44:41;;;;;;;3.78;1.35;;;;;;;;;;5077968;28;20115;-75
2023/02/07 13:47:27;;;;;;;3.13;1.40;;;;;;;;;;5072770;28;20052;-75
2023/02/07 13:49:58;;;;;;;5.68;1.73;;;;;;;;;;5068027;28;20036;-75
2023/02/07 13:52:42;;;;;;;3.45;1.65;;;;;;;;;;5091303;28;20024;-75
2023/02/07 13:55:07;;;;;;;3.88;1.58;;;;;;;;;;5090531;28;20016;-75
2023/02/07 14:00:17;;;;;;;4.93;2.05;;;;;;;;;;5072976;28;20533;-75
2023/02/07 14:02:45;;;;;;;4.35;1.75;;;;;;;;;;5089017;28;20020;-75
2023/02/07 14:05:17;;;;;;;4.28;1.63;;;;;;;;;;5086523;28;20035;-75
2023/02/07 14:07:43;;;;;;;;;;;;;;;;;;5075835;28;20043;-75
2023/02/07 14:10:28;;;;;;;2.80;1.65;;;;;;;;;;5072070;28;19908;-76
2023/02/07 14:12:53;;;;;;;4.60;1.90;;;;;;;;;;5073401;28;20323;-75
2023/02/07 14:15:27;;;;;;;6.10;1.80;;;;;;;;;;5094366;28;20111;-75
2023/02/07 14:17:58;;;;;;;5.05;1.88;;;;;;;;;;5082575;28;20471;-75
2023/02/07 14:20:35;;;;;;;3.63;1.70;;;;;;;;;;5068355;28;20035;-75
2023/02/07 14:23:12;;;;;;;4.10;1.65;;;;;;;;;;5087378;28;20521;-76
2023/02/07 14:25:40;;;;;;;3.65;1.92;;;;;;;;;;5081397;28;20040;-75
2023/02/07 14:28:07;;;;;;;3.67;1.60;;;;;;;;;;5074433;28;20037;-76
2023/02/07 14:30:36;;;;;;;5.35;1.92;;;;;;;;;;5092094;28;20020;-76
2023/02/07 14:33:07;;;;;;;3.50;1.65;;;;;;;;;;5093748;28;20024;-76
2023/02/07 14:35:37;;;;;;;3.30;1.30;;;;;;;;;;5084605;28;20447;-76
2023/02/07 14:38:05;;;;;;;4.63;1.80;;;;;;;;;;5081790;28;20025;-75
2023/02/07 14:40:43;;;;;;;4.57;2.03;;;;;;;;;;5079893;28;20472;-76
2023/02/07 14:43:11;;;;;;;4.05;1.60;;;;;;;;;;5076062;28;20094;-76
2023/02/07 14:45:37;;;;;;;4.93;2.00;;;;;;;;;;5067620;28;20078;-75
2023/02/07 14:48:04;;;;;;;5.07;1.67;;;;;;;;;;5087213;28;20068;-76